createdAt,value
2023-02-09T00:02:47.631Z,4.38
2023-02-09T00:05:51.467Z,4.68
2023-02-09T00:08:57.973Z,4.53
2023-02-09T00:12:15.040Z,5.40
2023-02-09T00:15:22.821Z,4.80
2023-02-09T00:18:27.982Z,5.38
2023-02-09T00:21:34.190Z,5.07
2023-02-09T00:24:38.580Z,5.22
2023-02-09T00:27:44.362Z,4.70
2023-02-09T00:30:50.133Z,5.15
2023-02-09T00:33:56.457Z,4.78
2023-02-09T00:37:00.329Z,5.20
2023-02-09T00:40:06.841Z,4.50
2023-02-09T00:43:11.669Z,4.30
2023-02-09T00:46:19.498Z,5.15
2023-02-09T00:49:23.421Z,5.70
2023-02-09T00:52:29.372Z,4.57
2023-02-09T00:55:33.232Z,5.38
2023-02-09T00:58:39.062Z,5.32
2023-02-09T01:01:44.889Z,4.70
2023-02-09T01:04:50.705Z,4.85
2023-02-09T01:07:54.830Z,4.88
2023-02-09T01:11:00.790Z,4.93
2023-02-09T01:14:06.190Z,5.50
2023-02-09T01:17:13.936Z,4.68
2023-02-09T01:20:19.412Z,5.00
2023-02-09T01:23:25.234Z,5.25
2023-02-09T01:26:29.415Z,4.80
2023-02-09T01:29:35.288Z,5.40
2023-02-09T01:32:41.016Z,4.45
2023-02-09T01:35:46.880Z,5.38
2023-02-09T01:38:51.020Z,5.07
2023-02-09T01:41:56.963Z,5.32
2023-02-09T01:45:26.563Z,5.70
2023-02-09T01:48:34.396Z,5.18
2023-02-09T01:51:42.093Z,5.28
2023-02-09T01:54:51.697Z,5.60
2023-02-09T01:57:59.439Z,5.25
2023-02-09T02:01:05.659Z,4.88
2023-02-09T02:04:12.188Z,5.60
2023-02-09T02:07:21.873Z,5.25
2023-02-09T02:10:25.831Z,6.63
2023-02-09T02:13:31.891Z,5.25
2023-02-09T02:16:51.884Z,5.63
2023-02-09T02:20:30.094Z,5.40
2023-02-09T02:23:40.802Z,5.68
2023-02-09T02:26:59.513Z,5.38
2023-02-09T02:30:35.629Z,5.50
2023-02-09T02:33:46.790Z,5.35
2023-02-09T02:37:01.165Z,6.38
2023-02-09T02:40:16.021Z,5.72
2023-02-09T02:43:26.522Z,5.90
2023-02-09T02:46:36.967Z,5.82
2023-02-09T02:49:49.519Z,5.75
2023-02-09T02:52:59.186Z,6.50
2023-02-09T02:56:08.716Z,6.55
2023-02-09T02:59:18.681Z,5.63
2023-02-09T03:02:26.007Z,5.75
2023-02-09T03:05:34.548Z,6.32
2023-02-09T03:08:49.158Z,5.90
2023-02-09T03:12:02.028Z,6.40
2023-02-09T03:15:18.645Z,6.35
2023-02-09T03:18:30.124Z,6.13
2023-02-09T03:21:46.333Z,6.00
2023-02-09T03:24:58.243Z,6.20
2023-02-09T03:28:06.169Z,7.32
2023-02-09T03:31:12.811Z,6.35
2023-02-09T03:34:17.586Z,6.70
2023-02-09T03:37:25.999Z,5.97
2023-02-09T03:40:29.963Z,6.82
2023-02-09T03:43:54.413Z,6.75
2023-02-09T03:47:00.406Z,6.43
2023-02-09T03:50:06.829Z,6.03
2023-02-09T03:53:12.592Z,5.93
2023-02-09T03:56:18.406Z,6.78
2023-02-09T03:59:24.566Z,6.78
2023-02-09T04:02:30.422Z,5.90
2023-02-09T04:05:34.356Z,6.95
2023-02-09T04:08:42.495Z,6.50
2023-02-09T04:11:46.922Z,6.70
2023-02-09T04:14:52.836Z,6.75
2023-02-09T04:17:56.640Z,7.03
2023-02-09T04:21:02.544Z,7.05
2023-02-09T04:24:09.176Z,6.97
2023-02-09T04:27:15.036Z,7.43
2023-02-09T04:30:19.072Z,7.28
2023-02-09T04:33:25.939Z,7.43
2023-02-09T04:36:30.003Z,6.88
2023-02-09T04:39:37.780Z,6.38
2023-02-09T04:42:41.681Z,7.53
2023-02-09T04:45:48.164Z,6.38
2023-02-09T04:48:52.136Z,6.65
2023-02-09T04:51:57.962Z,6.82
2023-02-09T04:55:03.863Z,6.93
2023-02-09T04:58:27.298Z,6.80
2023-02-09T05:01:32.018Z,6.68
2023-02-09T05:04:38.064Z,7.32
2023-02-09T05:07:41.896Z,6.50
2023-02-09T05:10:49.655Z,6.60
2023-02-09T05:13:53.512Z,6.95
2023-02-09T05:16:59.643Z,6.95
2023-02-09T05:20:03.627Z,6.32
2023-02-09T05:23:09.515Z,6.50
2023-02-09T05:26:15.255Z,6.45
2023-02-09T05:29:22.281Z,7.28
2023-02-09T05:32:26.269Z,7.22
2023-02-09T05:35:32.188Z,7.18
2023-02-09T05:38:36.217Z,6.30
2023-02-09T05:41:57.098Z,6.18
2023-02-09T05:45:00.988Z,7.28
2023-02-09T05:48:07.028Z,6.72
2023-02-09T05:51:10.909Z,7.78
2023-02-09T05:54:16.886Z,6.63
2023-02-09T05:57:22.616Z,7.45
2023-02-09T06:00:29.239Z,6.50
2023-02-09T06:03:33.121Z,7.03
2023-02-09T06:06:38.995Z,6.68
2023-02-09T06:09:42.796Z,6.63
2023-02-09T06:12:50.612Z,6.60
2023-02-09T06:15:54.594Z,6.88
2023-02-09T06:19:00.472Z,7.00
2023-02-09T06:22:04.362Z,6.82
2023-02-09T06:25:10.621Z,7.10
2023-02-09T06:28:16.407Z,7.35
2023-02-09T06:31:22.496Z,7.53
2023-02-09T06:34:27.232Z,7.13
2023-02-09T06:37:33.131Z,7.95
2023-02-09T06:40:36.988Z,6.75
2023-02-09T06:43:44.752Z,7.10
2023-02-09T06:46:48.570Z,5.93
2023-02-09T06:49:54.354Z,6.93
2023-02-09T06:52:59.070Z,6.40
2023-02-09T06:56:05.541Z,8.00
2023-02-09T06:59:11.293Z,7.00
2023-02-09T07:02:17.297Z,7.40
2023-02-09T07:05:21.702Z,6.32
2023-02-09T07:08:27.503Z,7.93
2023-02-09T07:11:31.893Z,6.93
2023-02-09T07:14:39.635Z,6.82
2023-02-09T07:17:43.741Z,7.25
2023-02-09T07:20:55.789Z,7.22
2023-02-09T07:23:59.661Z,8.73
2023-02-09T07:27:06.076Z,7.95
2023-02-09T07:30:13.616Z,7.07
2023-02-09T07:33:19.568Z,8.27
2023-02-09T07:36:23.580Z,7.47
2023-02-09T07:39:29.653Z,6.88
2023-02-09T07:42:33.657Z,7.32
2023-02-09T07:45:44.347Z,7.90
2023-02-09T07:48:48.979Z,7.28
2023-02-09T07:51:54.826Z,7.60
2023-02-09T07:54:58.847Z,7.88
2023-02-09T07:58:04.715Z,7.45
2023-02-09T08:01:13.509Z,7.65
2023-02-09T08:04:19.393Z,7.75
2023-02-09T08:07:23.432Z,9.00
2023-02-09T08:10:29.511Z,7.47
2023-02-09T08:13:37.737Z,7.75
2023-02-09T08:16:45.980Z,8.18
2023-02-09T08:19:53.619Z,8.65
2023-02-09T08:23:06.773Z,8.00
2023-02-09T08:26:12.495Z,8.40
2023-02-09T08:29:18.316Z,8.68
2023-02-09T08:32:24.310Z,8.15
2023-02-09T08:35:30.833Z,7.45
2023-02-09T08:38:36.558Z,8.02
2023-02-09T08:41:43.748Z,8.05
2023-02-09T08:44:49.091Z,7.57
2023-02-09T08:47:56.889Z,8.10
2023-02-09T08:51:01.118Z,7.15
2023-02-09T08:54:06.948Z,7.47
2023-02-09T08:57:10.777Z,7.68
2023-02-09T09:00:18.349Z,8.13
2023-02-09T09:03:27.128Z,8.15
2023-02-09T09:06:32.967Z,7.60
2023-02-09T09:09:36.991Z,8.13
2023-02-09T09:12:42.868Z,7.95
2023-02-09T09:15:47.056Z,8.38
2023-02-09T09:18:54.946Z,8.35
2023-02-09T09:22:02.854Z,8.38
2023-02-09T09:25:09.337Z,7.72
2023-02-09T09:28:13.244Z,8.15
2023-02-09T09:31:20.054Z,8.43
2023-02-09T09:34:25.878Z,8.50
2023-02-09T09:37:31.786Z,8.27
2023-02-09T09:40:38.826Z,8.23
2023-02-09T09:43:44.826Z,8.98
2023-02-09T09:46:52.344Z,7.95
2023-02-09T09:50:00.143Z,8.85
2023-02-09T09:53:12.336Z,8.27
2023-02-09T09:56:21.800Z,8.73
2023-02-09T09:59:28.277Z,8.75
2023-02-09T10:02:35.866Z,8.20
2023-02-09T10:05:41.983Z,8.07
2023-02-09T10:08:52.937Z,8.73
2023-02-09T10:12:05.585Z,7.80
2023-02-09T10:15:28.890Z,8.57
2023-02-09T10:18:37.561Z,7.78
2023-02-09T10:21:45.959Z,7.93
2023-02-09T10:24:49.801Z,8.05
2023-02-09T10:27:55.663Z,7.68
2023-02-09T10:34:15.137Z,8.25
2023-02-09T10:37:23.650Z,8.65
2023-02-09T10:40:32.031Z,8.10
2023-02-09T10:43:36.693Z,8.80
2023-02-09T10:46:42.602Z,7.78
2023-02-09T10:49:54.357Z,8.77
2023-02-09T10:53:03.974Z,7.25
2023-02-09T10:56:16.213Z,7.60
2023-02-09T10:59:24.765Z,8.68
2023-02-09T11:02:36.558Z,8.32
2023-02-09T11:05:42.379Z,8.05
2023-02-09T11:11:55.770Z,7.97
2023-02-09T11:14:59.613Z,7.70
2023-02-09T11:18:13.064Z,9.13
2023-02-09T11:21:21.652Z,8.77
2023-02-09T11:24:46.124Z,9.07
2023-02-09T11:28:26.681Z,10.63
2023-02-09T11:31:47.773Z,9.85
2023-02-09T11:35:11.640Z,9.70
2023-02-09T11:38:21.020Z,10.85
2023-02-09T11:41:44.829Z,10.23
2023-02-09T11:44:59.035Z,10.35
2023-02-09T11:48:09.398Z,10.52
2023-02-09T11:51:18.924Z,9.77
2023-02-09T11:54:27.983Z,9.73
2023-02-09T11:57:41.938Z,10.57
2023-02-09T12:00:57.972Z,10.20
2023-02-09T12:07:26.433Z,11.85
2023-02-09T12:10:36.028Z,9.80
2023-02-09T12:13:57.542Z,10.38
2023-02-09T12:17:12.961Z,11.63
2023-02-09T12:20:29.760Z,10.52
2023-02-09T12:23:37.455Z,9.63
2023-02-09T12:26:43.798Z,9.05
2023-02-09T12:29:51.577Z,9.15
2023-02-09T12:33:17.194Z,10.43
2023-02-09T12:36:29.620Z,9.40
2023-02-09T12:39:35.141Z,9.85
2023-02-09T12:42:42.535Z,9.32
2023-02-09T12:46:12.142Z,9.02
2023-02-09T12:49:22.553Z,9.93
2023-02-09T12:52:26.460Z,8.52
2023-02-09T12:55:32.523Z,8.70
2023-02-09T12:58:38.622Z,9.20
2023-02-09T13:02:13.369Z,7.78
2023-02-09T13:05:19.488Z,9.85
2023-02-09T13:08:46.437Z,8.07
2023-02-09T13:11:57.102Z,8.30
2023-02-09T13:15:13.066Z,7.80
2023-02-09T13:18:26.506Z,8.32
2023-02-09T13:21:40.126Z,8.15
2023-02-09T13:24:50.413Z,8.88
2023-02-09T13:27:56.378Z,9.25
2023-02-09T13:31:01.087Z,9.10
2023-02-09T13:34:25.044Z,9.57
2023-02-09T13:37:36.331Z,8.63
2023-02-09T13:40:47.879Z,10.03
2023-02-09T13:43:51.792Z,8.98
2023-02-09T13:46:59.820Z,9.25
2023-02-09T13:50:13.345Z,9.45
2023-02-09T13:53:22.342Z,9.68
2023-02-09T13:56:28.057Z,9.50
2023-02-09T13:59:34.601Z,9.80
2023-02-09T14:02:39.875Z,9.63
2023-02-09T14:05:52.212Z,9.05
2023-02-09T14:08:57.184Z,9.35
2023-02-09T14:12:09.369Z,9.82
2023-02-09T14:15:29.366Z,9.40
2023-02-09T14:18:50.030Z,9.20
2023-02-09T14:21:55.902Z,10.10
2023-02-09T14:25:02.176Z,9.75
2023-02-09T14:28:06.247Z,9.98
2023-02-09T14:31:20.686Z,10.25
2023-02-09T14:34:31.152Z,9.82
2023-02-09T14:37:39.976Z,10.05
2023-02-09T14:40:43.786Z,9.93
2023-02-09T14:43:59.493Z,9.75
2023-02-09T14:47:03.397Z,9.98
2023-02-09T14:50:14.631Z,10.20
2023-02-09T14:53:21.046Z,9.35
2023-02-09T14:56:33.884Z,9.38
2023-02-09T14:59:37.835Z,10.40
2023-02-09T15:02:43.824Z,10.35
2023-02-09T15:05:49.574Z,10.90
2023-02-09T15:08:57.294Z,10.80
2023-02-09T15:12:07.308Z,10.52
2023-02-09T15:15:18.014Z,11.18
2023-02-09T15:18:23.472Z,11.30
2023-02-09T15:21:29.453Z,11.35
2023-02-09T15:24:35.574Z,11.20
2023-02-09T15:27:51.168Z,11.00
2023-02-09T15:30:55.884Z,10.45
2023-02-09T15:34:01.766Z,10.25
2023-02-09T15:40:36.925Z,10.93
2023-02-09T15:43:53.961Z,11.27
2023-02-09T15:47:13.011Z,11.05
2023-02-09T15:50:17.866Z,10.55
2023-02-09T15:53:25.954Z,10.27
2023-02-09T15:56:31.936Z,10.88
2023-02-09T15:59:37.843Z,11.50
2023-02-09T16:05:49.813Z,11.35
2023-02-09T16:08:54.267Z,10.40
2023-02-09T16:12:02.084Z,10.60
2023-02-09T16:15:14.854Z,10.95
2023-02-09T16:18:20.973Z,11.40
2023-02-09T16:21:27.832Z,10.93
2023-02-09T16:24:37.718Z,11.05
2023-02-09T16:27:43.502Z,11.55
2023-02-09T16:30:53.316Z,11.98
2023-02-09T16:33:57.229Z,11.43
2023-02-09T16:37:03.168Z,11.77
2023-02-09T16:43:16.215Z,10.68
2023-02-09T16:46:20.089Z,12.48
2023-02-09T16:49:33.579Z,11.95
2023-02-09T16:52:38.677Z,12.55
2023-02-09T16:55:47.962Z,11.57
2023-02-09T16:58:54.927Z,12.02
2023-02-09T17:02:01.599Z,12.18
2023-02-09T17:05:16.727Z,12.18
2023-02-09T17:08:24.809Z,12.65
2023-02-09T17:11:30.171Z,11.93
2023-02-09T17:14:37.981Z,12.35
2023-02-09T17:17:47.424Z,12.88
2023-02-09T17:20:56.587Z,13.07
2023-02-09T17:24:00.442Z,12.52
2023-02-09T17:27:06.357Z,12.63
2023-02-09T17:33:23.236Z,12.68
2023-02-09T17:36:29.161Z,11.77
2023-02-09T17:39:35.407Z,14.02
2023-02-09T17:45:50.395Z,12.82
2023-02-09T17:48:54.278Z,12.60
2023-02-09T17:52:00.369Z,13.80
2023-02-09T17:55:04.156Z,13.43
2023-02-09T17:58:10.131Z,13.07
2023-02-09T18:01:26.808Z,13.40
2023-02-09T18:04:33.219Z,13.57
2023-02-09T18:07:37.065Z,13.93
2023-02-09T18:10:42.966Z,13.27
2023-02-09T18:16:55.048Z,13.00
2023-02-09T18:19:58.902Z,13.55
2023-02-09T18:23:06.516Z,13.88
2023-02-09T18:26:10.458Z,13.98
2023-02-09T18:29:16.385Z,15.45
2023-02-09T18:35:34.557Z,14.57
2023-02-09T18:38:39.114Z,14.55
2023-02-09T18:41:47.776Z,15.15
2023-02-09T18:44:51.679Z,14.95
2023-02-09T18:47:59.739Z,15.40
2023-02-09T18:51:03.627Z,16.77
2023-02-09T18:54:09.515Z,15.65
2023-02-09T19:00:20.969Z,16.60
2023-02-09T19:03:26.988Z,15.43
2023-02-09T19:06:34.871Z,17.85
2023-02-09T19:09:39.729Z,18.13
2023-02-09T19:12:47.042Z,15.65
2023-02-09T19:15:51.004Z,15.77
2023-02-09T19:19:00.149Z,16.58
2023-02-09T19:22:03.956Z,16.65
2023-02-09T19:25:10.408Z,16.60
2023-02-09T19:28:14.948Z,16.42
2023-02-09T19:31:20.829Z,16.80
2023-02-09T19:37:32.580Z,17.20
2023-02-09T19:40:40.345Z,18.67
2023-02-09T19:43:46.156Z,17.02
2023-02-09T19:46:50.302Z,17.05
2023-02-09T19:49:59.748Z,18.50
2023-02-09T19:53:04.198Z,18.67
2023-02-09T19:56:16.247Z,17.52
2023-02-09T19:59:20.090Z,17.08
2023-02-09T20:02:26.068Z,17.55
2023-02-09T20:08:38.741Z,17.42
2023-02-09T20:11:42.614Z,18.55
2023-02-09T20:14:48.614Z,18.58
2023-02-09T20:21:00.112Z,17.20
2023-02-09T20:24:08.858Z,17.58
2023-02-09T20:27:14.736Z,17.80
2023-02-09T20:33:24.236Z,18.50
2023-02-09T20:36:30.393Z,17.65
2023-02-09T20:39:36.277Z,18.85
2023-02-09T20:46:12.315Z,18.10
2023-02-09T20:49:18.889Z,19.10
2023-02-09T20:52:27.165Z,18.38
2023-02-09T20:55:31.915Z,18.58
2023-02-09T20:58:38.144Z,18.50
2023-02-09T21:01:42.244Z,19.13
2023-02-09T21:04:48.057Z,18.67
2023-02-09T21:11:00.283Z,18.58
2023-02-09T21:14:04.459Z,19.33
2023-02-09T21:17:10.341Z,19.48
2023-02-09T21:23:21.978Z,19.83
2023-02-09T21:26:25.915Z,18.75
2023-02-09T21:29:33.718Z,18.50
2023-02-09T21:32:38.347Z,18.10
2023-02-09T21:35:44.158Z,18.10
2023-02-09T21:42:08.651Z,17.52
2023-02-09T21:45:12.662Z,18.17
2023-02-09T21:48:18.510Z,18.48
2023-02-09T21:51:22.771Z,19.27
2023-02-09T21:54:33.184Z,18.65
2023-02-09T21:57:37.612Z,18.83
2023-02-09T22:00:43.398Z,18.77
2023-02-09T22:03:52.073Z,19.17
2023-02-09T22:06:57.952Z,18.05
2023-02-09T22:13:09.407Z,18.33
2023-02-09T22:19:24.227Z,18.17
2023-02-09T22:22:28.049Z,20.50
2023-02-09T22:25:36.088Z,18.38
2023-02-09T22:28:40.083Z,19.17
2023-02-09T22:31:46.365Z,20.17
2023-02-09T22:34:50.184Z,18.42
2023-02-09T22:37:55.973Z,19.40
2023-02-09T22:44:14.784Z,18.17
2023-02-09T22:47:18.673Z,17.58
2023-02-09T22:50:24.784Z,19.45
2023-02-09T22:53:28.629Z,18.73
2023-02-09T22:56:36.549Z,19.65
2023-02-09T22:59:40.464Z,17.95
2023-02-09T23:02:46.395Z,17.23
2023-02-09T23:05:50.493Z,18.77
2023-02-09T23:08:57.507Z,18.92
2023-02-09T23:12:03.342Z,17.35
2023-02-09T23:15:10.391Z,18.35
2023-02-09T23:18:16.302Z,19.52
2023-02-09T23:21:21.219Z,17.33
2023-02-09T23:24:27.340Z,17.23
2023-02-09T23:27:33.088Z,17.60
2023-02-09T23:30:38.939Z,16.75
2023-02-09T23:36:49.148Z,17.25
2023-02-09T23:39:52.891Z,17.67
2023-02-09T23:43:00.760Z,17.80
2023-02-09T23:46:05.559Z,18.33
2023-02-09T23:49:12.094Z,18.50
2023-02-09T23:52:15.901Z,17.95
2023-02-09T23:55:21.761Z,17.23
